createdAt,value
2023-05-10T00:00:28.641Z,53.67
2023-05-10T00:03:09.253Z,55.80
2023-05-10T00:05:36.128Z,55.12
2023-05-10T00:08:02.692Z,56.16
2023-05-10T00:10:29.279Z,56.43
2023-05-10T00:12:55.956Z,57.99
2023-05-10T00:15:22.756Z,58.70
2023-05-10T00:17:49.727Z,58.69
2023-05-10T00:20:16.742Z,59.49
2023-05-10T00:22:43.907Z,59.80
2023-05-10T00:25:11.008Z,61.20
2023-05-10T00:27:38.001Z,61.50
2023-05-10T00:30:06.708Z,61.99
2023-05-10T00:32:33.345Z,62.97
2023-05-10T00:35:00.090Z,66.89
2023-05-10T00:37:27.116Z,67.80
2023-05-10T00:39:53.695Z,68.64
2023-05-10T00:42:20.585Z,67.72
2023-05-10T00:44:47.543Z,66.27
2023-05-10T00:47:14.271Z,64.84
2023-05-10T00:49:41.381Z,63.25
2023-05-10T00:52:09.209Z,61.88
2023-05-10T00:54:35.910Z,59.88
2023-05-10T00:57:03.953Z,57.01
2023-05-10T00:59:31.044Z,55.12
2023-05-10T01:01:58.432Z,54.55
2023-05-10T01:04:25.893Z,54.29
2023-05-10T01:06:53.832Z,53.81
2023-05-10T01:09:21.790Z,53.74
2023-05-10T01:11:48.566Z,54.02
2023-05-10T01:14:15.472Z,55.27
2023-05-10T01:16:42.214Z,55.62
2023-05-10T01:19:38.135Z,56.55
2023-05-10T01:22:58.243Z,57.31
2023-05-10T01:25:36.868Z,58.75
2023-05-10T01:28:59.799Z,60.70
2023-05-10T01:31:44.396Z,60.38
2023-05-10T01:34:17.814Z,61.00
2023-05-10T01:36:51.758Z,62.76
2023-05-10T01:39:26.431Z,66.61
2023-05-10T01:42:03.906Z,70.11
2023-05-10T01:44:43.424Z,70.23
2023-05-10T01:47:20.963Z,67.75
2023-05-10T01:49:53.788Z,64.68
2023-05-10T01:52:35.018Z,63.54
2023-05-10T01:55:14.766Z,62.32
2023-05-10T01:57:41.861Z,60.94
2023-05-10T02:00:09.877Z,58.89
2023-05-10T02:02:46.844Z,55.75
2023-05-10T02:05:15.499Z,55.02
2023-05-10T02:07:42.125Z,54.67
2023-05-10T02:10:10.095Z,55.75
2023-05-10T02:12:39.857Z,54.57
2023-05-10T02:15:07.700Z,54.59
2023-05-10T02:17:36.607Z,54.38
2023-05-10T02:20:05.450Z,55.59
2023-05-10T02:22:32.099Z,56.21
2023-05-10T02:24:58.790Z,56.32
2023-05-10T02:27:26.194Z,57.24
2023-05-10T02:29:53.432Z,57.71
2023-05-10T02:32:20.271Z,59.61
2023-05-10T02:34:47.012Z,61.48
2023-05-10T02:37:18.705Z,62.81
2023-05-10T02:39:55.967Z,66.70
2023-05-10T02:42:27.199Z,69.76
2023-05-10T02:45:06.315Z,69.38
2023-05-10T02:47:33.079Z,67.46
2023-05-10T02:49:59.852Z,65.38
2023-05-10T02:52:30.031Z,63.56
2023-05-10T02:54:59.329Z,61.67
2023-05-10T02:57:29.241Z,60.09
2023-05-10T02:59:56.137Z,57.58
2023-05-10T03:02:23.399Z,54.99
2023-05-10T03:04:50.183Z,54.49
2023-05-10T03:07:19.784Z,54.23
2023-05-10T03:09:49.487Z,54.03
2023-05-10T03:12:31.796Z,53.98
2023-05-10T03:15:08.902Z,54.23
2023-05-10T03:18:05.243Z,54.57
2023-05-10T03:20:37.078Z,55.83
2023-05-10T03:23:37.931Z,57.13
2023-05-10T03:26:04.956Z,57.71
2023-05-10T03:28:31.809Z,58.99
2023-05-10T03:30:58.723Z,59.29
2023-05-10T03:33:25.798Z,59.46
2023-05-10T03:35:53.150Z,59.66
2023-05-10T03:38:19.934Z,59.10
2023-05-10T03:40:46.653Z,58.89
2023-05-10T03:43:13.580Z,59.13
2023-05-10T03:45:40.615Z,58.67
2023-05-10T03:48:07.420Z,58.47
2023-05-10T03:50:34.329Z,58.77
2023-05-10T03:53:01.088Z,58.25
2023-05-10T03:55:28.710Z,58.18
2023-05-10T03:57:56.383Z,58.69
2023-05-10T04:00:23.509Z,58.65
2023-05-10T04:02:51.355Z,58.50
2023-05-10T04:05:20.156Z,59.69
2023-05-10T04:07:47.555Z,60.74
2023-05-10T04:10:14.732Z,59.76
2023-05-10T04:12:41.465Z,59.08
2023-05-10T04:15:09.265Z,58.43
2023-05-10T04:17:36.070Z,59.25
2023-05-10T04:20:03.984Z,58.49
2023-05-10T04:22:30.859Z,56.77
2023-05-10T04:24:57.759Z,53.85
2023-05-10T04:27:24.504Z,52.00
2023-05-10T04:29:51.481Z,53.28
2023-05-10T04:32:18.285Z,49.72
2023-05-10T04:34:44.965Z,52.94
2023-05-10T04:37:11.658Z,50.91
2023-05-10T04:39:40.239Z,46.64
2023-05-10T04:42:08.411Z,46.36
2023-05-10T04:44:35.872Z,43.81
2023-05-10T04:47:03.428Z,40.61
2023-05-10T04:49:30.509Z,43.46
2023-05-10T04:51:57.142Z,40.15
2023-05-10T04:54:24.489Z,37.50
2023-05-10T04:56:51.367Z,40.23
2023-05-10T04:59:18.157Z,39.44
2023-05-10T05:01:44.969Z,37.39
2023-05-10T05:04:11.880Z,36.64
2023-05-10T05:06:38.479Z,35.30
2023-05-10T05:09:05.125Z,38.87
2023-05-10T05:11:31.780Z,33.99
2023-05-10T05:13:59.536Z,33.66
2023-05-10T05:16:26.859Z,34.73
2023-05-10T05:18:53.703Z,34.17
2023-05-10T05:21:20.729Z,31.13
2023-05-10T05:23:47.375Z,30.18
2023-05-10T05:26:15.252Z,28.95
2023-05-10T05:28:42.204Z,28.10
2023-05-10T05:31:09.501Z,28.53
2023-05-10T05:33:36.490Z,28.90
2023-05-10T05:36:04.561Z,30.00
2023-05-10T05:38:31.405Z,27.22
2023-05-10T05:40:58.352Z,25.25
2023-05-10T05:43:25.140Z,25.74
2023-05-10T05:45:54.997Z,27.07
2023-05-10T05:48:21.805Z,25.06
2023-05-10T05:50:48.383Z,25.72
2023-05-10T05:53:15.232Z,24.83
2023-05-10T05:55:55.519Z,27.17
2023-05-10T05:58:22.929Z,24.24
2023-05-10T06:00:49.675Z,25.17
2023-05-10T06:03:16.560Z,24.68
2023-05-10T06:05:43.661Z,24.45
2023-05-10T06:08:10.384Z,24.16
2023-05-10T06:10:37.811Z,24.89
2023-05-10T06:13:04.532Z,23.95
2023-05-10T06:15:31.117Z,22.58
2023-05-10T06:17:57.941Z,23.25
2023-05-10T06:20:24.668Z,22.85
2023-05-10T06:22:51.445Z,23.72
2023-05-10T06:25:18.776Z,23.77
2023-05-10T06:27:48.123Z,23.64
2023-05-10T06:30:16.896Z,23.63
2023-05-10T06:32:44.621Z,23.52
2023-05-10T06:35:11.596Z,23.24
2023-05-10T06:37:38.317Z,23.51
2023-05-10T06:40:07.209Z,23.89
2023-05-10T06:42:33.868Z,23.52
2023-05-10T06:45:00.706Z,24.20
2023-05-10T06:47:27.348Z,22.97
2023-05-10T06:49:54.222Z,23.52
2023-05-10T06:52:20.935Z,23.18
2023-05-10T06:54:47.565Z,23.12
2023-05-10T06:57:27.660Z,23.04
2023-05-10T06:59:59.567Z,21.31
2023-05-10T07:02:26.894Z,22.63
2023-05-10T07:04:54.532Z,21.81
2023-05-10T07:07:21.236Z,22.14
2023-05-10T07:09:48.066Z,22.62
2023-05-10T07:12:15.865Z,22.98
2023-05-10T07:14:43.092Z,22.24
2023-05-10T07:17:10.395Z,21.36
2023-05-10T07:19:37.169Z,22.58
2023-05-10T07:22:03.938Z,22.40
2023-05-10T07:24:31.675Z,21.88
2023-05-10T07:26:58.387Z,21.27
2023-05-10T07:29:24.946Z,21.87
2023-05-10T07:31:51.844Z,21.62
2023-05-10T07:34:18.633Z,21.19
2023-05-10T07:36:45.371Z,21.14
2023-05-10T07:39:16.256Z,20.87
2023-05-10T07:41:48.380Z,20.32
2023-05-10T07:44:15.239Z,20.52
2023-05-10T07:46:41.977Z,19.65
2023-05-10T07:49:08.829Z,20.59
2023-05-10T07:51:35.425Z,19.35
2023-05-10T07:54:02.997Z,19.91
2023-05-10T07:56:32.201Z,20.64
2023-05-10T07:58:59.851Z,20.63
2023-05-10T08:01:27.523Z,20.12
2023-05-10T08:03:54.642Z,20.64
2023-05-10T08:06:22.122Z,19.56
2023-05-10T08:08:52.583Z,20.12
2023-05-10T08:11:21.015Z,20.60
2023-05-10T08:13:48.780Z,20.87
2023-05-10T08:16:16.036Z,21.14
2023-05-10T08:18:44.371Z,19.37
2023-05-10T08:21:11.732Z,20.27
2023-05-10T08:23:38.503Z,20.18
2023-05-10T08:26:05.558Z,21.77
2023-05-10T08:28:32.494Z,23.10
2023-05-10T08:30:59.313Z,23.47
2023-05-10T08:33:26.319Z,24.44
2023-05-10T08:35:52.920Z,24.22
2023-05-10T08:38:19.585Z,24.78
2023-05-10T08:40:46.243Z,26.13
2023-05-10T08:43:15.600Z,26.50
2023-05-10T08:45:45.800Z,26.87
2023-05-10T08:48:12.547Z,27.20
2023-05-10T08:50:41.061Z,27.80
2023-05-10T08:53:12.332Z,28.20
2023-05-10T08:55:40.448Z,27.81
2023-05-10T08:58:07.202Z,27.84
2023-05-10T09:00:34.165Z,28.18
2023-05-10T09:03:01.823Z,28.36
2023-05-10T09:05:28.839Z,28.55
2023-05-10T09:07:55.713Z,28.62
2023-05-10T09:10:22.425Z,28.37
2023-05-10T09:12:49.209Z,27.84
2023-05-10T09:15:17.018Z,27.16
2023-05-10T09:17:44.012Z,26.92
2023-05-10T09:20:10.815Z,26.71
2023-05-10T09:22:38.376Z,26.38
2023-05-10T09:25:12.703Z,26.85
2023-05-10T09:27:45.622Z,26.63
2023-05-10T09:30:28.493Z,26.55
2023-05-10T09:32:56.207Z,25.93
2023-05-10T09:35:28.731Z,26.06
2023-05-10T09:38:00.896Z,26.91
2023-05-10T09:40:29.059Z,27.12
2023-05-10T09:43:07.384Z,27.05
2023-05-10T09:45:38.567Z,27.13
2023-05-10T09:48:06.395Z,26.74
2023-05-10T09:50:34.457Z,26.41
2023-05-10T09:53:03.632Z,26.42
2023-05-10T09:55:40.646Z,26.09
2023-05-10T09:58:10.718Z,26.23
2023-05-10T10:00:42.385Z,26.34
2023-05-10T10:03:15.033Z,25.76
2023-05-10T10:05:43.266Z,25.00
2023-05-10T10:08:10.266Z,26.11
2023-05-10T10:10:37.257Z,26.49
2023-05-10T10:13:05.196Z,26.52
2023-05-10T10:15:31.863Z,26.60
2023-05-10T10:17:58.615Z,26.62
2023-05-10T10:20:27.222Z,25.96
2023-05-10T10:22:56.869Z,24.92
2023-05-10T10:25:23.650Z,25.41
2023-05-10T10:27:53.530Z,25.61
2023-05-10T10:30:38.205Z,26.08
2023-05-10T10:33:36.978Z,25.97
2023-05-10T10:36:04.433Z,25.44
2023-05-10T10:38:47.744Z,25.99
2023-05-10T10:41:37.248Z,26.41
2023-05-10T10:44:22.696Z,25.51
2023-05-10T10:47:09.710Z,25.11
2023-05-10T10:49:55.003Z,25.37
2023-05-10T10:52:40.543Z,25.40
2023-05-10T10:55:15.151Z,25.32
2023-05-10T10:57:41.889Z,25.89
2023-05-10T11:00:24.054Z,25.12
2023-05-10T11:03:00.885Z,25.68
2023-05-10T11:05:45.059Z,24.98
2023-05-10T11:08:12.085Z,25.15
2023-05-10T11:10:39.039Z,25.51
2023-05-10T11:13:07.764Z,25.17
2023-05-10T11:15:36.773Z,25.29
2023-05-10T11:18:25.217Z,24.74
2023-05-10T11:20:55.725Z,24.43
2023-05-10T11:23:22.641Z,24.29
2023-05-10T11:25:50.511Z,24.90
2023-05-10T11:28:19.180Z,24.70
2023-05-10T11:30:46.392Z,24.81
2023-05-10T11:33:20.055Z,24.98
2023-05-10T11:35:46.921Z,25.21
2023-05-10T11:38:14.075Z,25.19
2023-05-10T11:40:41.117Z,24.98
2023-05-10T11:43:09.714Z,24.69
2023-05-10T11:45:36.440Z,24.64
2023-05-10T11:48:03.362Z,24.25
2023-05-10T11:50:30.389Z,24.71
2023-05-10T11:52:57.687Z,24.87
2023-05-10T11:55:27.394Z,24.72
2023-05-10T11:57:54.886Z,24.38
2023-05-10T12:00:22.025Z,24.32
2023-05-10T12:02:49.015Z,25.07
2023-05-10T12:05:15.897Z,25.17
2023-05-10T12:07:42.829Z,24.99
2023-05-10T12:10:15.112Z,24.95
2023-05-10T12:12:43.862Z,24.74
2023-05-10T12:15:19.052Z,25.03
2023-05-10T12:17:46.337Z,24.90
2023-05-10T12:20:21.545Z,25.74
2023-05-10T12:22:51.403Z,25.71
2023-05-10T12:25:19.324Z,25.46
2023-05-10T12:27:54.174Z,25.61
2023-05-10T12:30:28.603Z,24.39
2023-05-10T12:33:07.933Z,24.99
2023-05-10T12:35:48.987Z,25.02
2023-05-10T12:38:39.473Z,25.61
2023-05-10T12:41:08.099Z,26.43
2023-05-10T12:43:35.379Z,25.58
2023-05-10T12:46:13.016Z,26.16
2023-05-10T12:48:41.053Z,26.34
2023-05-10T12:51:12.825Z,25.71
2023-05-10T12:53:41.557Z,25.70
2023-05-10T12:56:10.279Z,25.59
2023-05-10T12:58:37.285Z,25.23
2023-05-10T13:01:05.663Z,25.40
2023-05-10T13:03:32.846Z,25.62
2023-05-10T13:05:59.990Z,25.86
2023-05-10T13:08:26.792Z,26.00
2023-05-10T13:10:53.649Z,25.32
2023-05-10T13:13:20.547Z,24.28
2023-05-10T13:15:47.238Z,25.32
2023-05-10T13:18:14.164Z,25.46
2023-05-10T13:20:41.049Z,25.14
2023-05-10T13:23:07.697Z,25.23
2023-05-10T13:25:34.852Z,25.29
2023-05-10T13:28:01.789Z,24.75
2023-05-10T13:30:29.338Z,24.29
2023-05-10T13:32:56.020Z,24.38
2023-05-10T13:35:22.780Z,24.57
2023-05-10T13:37:49.784Z,24.89
2023-05-10T13:40:17.991Z,24.55
2023-05-10T13:42:45.032Z,24.31
2023-05-10T13:45:13.526Z,24.27
2023-05-10T13:47:40.331Z,24.70
2023-05-10T13:50:07.472Z,24.71
2023-05-10T13:52:34.145Z,24.83
2023-05-10T13:55:01.089Z,24.15
2023-05-10T13:57:29.212Z,24.53
2023-05-10T13:59:57.060Z,25.03
2023-05-10T14:02:25.158Z,25.09
2023-05-10T14:04:52.099Z,25.00
2023-05-10T14:07:18.873Z,25.26
2023-05-10T14:09:45.620Z,25.55
2023-05-10T14:12:12.250Z,25.30
2023-05-10T14:14:39.392Z,24.69
2023-05-10T14:17:06.220Z,24.78
2023-05-10T14:19:34.320Z,24.57
2023-05-10T14:22:01.212Z,24.00
2023-05-10T14:24:28.618Z,24.15
2023-05-10T14:26:55.327Z,24.81
2023-05-10T14:29:22.512Z,24.75
2023-05-10T14:31:50.350Z,24.40
2023-05-10T14:34:17.178Z,24.49
2023-05-10T14:36:43.796Z,24.50
2023-05-10T14:39:13.130Z,24.57
2023-05-10T14:41:43.292Z,24.59
2023-05-10T14:44:10.528Z,24.68
2023-05-10T14:46:37.757Z,25.16
2023-05-10T14:49:04.481Z,25.01
2023-05-10T14:51:32.121Z,25.03
2023-05-10T14:53:59.032Z,24.79
2023-05-10T14:56:26.595Z,25.06
2023-05-10T14:58:53.417Z,25.17
2023-05-10T15:01:20.725Z,25.04
2023-05-10T15:03:48.001Z,24.28
2023-05-10T15:06:16.510Z,24.11
2023-05-10T15:08:43.824Z,24.72
2023-05-10T15:11:10.529Z,24.98
2023-05-10T15:13:37.272Z,24.89
2023-05-10T15:16:04.268Z,24.13
2023-05-10T15:18:31.108Z,24.15
2023-05-10T15:20:58.875Z,24.24
2023-05-10T15:23:25.612Z,24.66
2023-05-10T15:25:55.788Z,24.41
2023-05-10T15:28:22.934Z,24.44
2023-05-10T15:30:49.656Z,24.62
2023-05-10T15:33:16.330Z,24.93
2023-05-10T15:35:42.953Z,24.89
2023-05-10T15:38:10.356Z,24.73
2023-05-10T15:40:37.031Z,24.45
2023-05-10T15:43:04.387Z,24.74
2023-05-10T15:45:31.338Z,24.82
2023-05-10T15:47:59.636Z,24.34
2023-05-10T15:50:26.820Z,24.87
2023-05-10T15:52:53.717Z,24.98
2023-05-10T15:55:20.401Z,25.20
2023-05-10T15:57:48.016Z,25.35
2023-05-10T16:00:15.543Z,25.06
2023-05-10T16:02:42.357Z,24.91
2023-05-10T16:05:09.408Z,24.92
2023-05-10T16:07:36.154Z,24.83
2023-05-10T16:10:05.814Z,24.72
2023-05-10T16:12:32.706Z,24.75
2023-05-10T16:14:59.422Z,25.51
2023-05-10T16:17:26.093Z,25.79
2023-05-10T16:19:52.945Z,25.81
2023-05-10T16:22:21.716Z,25.88
2023-05-10T16:24:48.503Z,25.68
2023-05-10T16:27:15.720Z,25.19
2023-05-10T16:29:42.490Z,25.55
2023-05-10T16:32:09.196Z,25.64
2023-05-10T16:34:36.114Z,25.74
2023-05-10T16:37:02.797Z,26.05
2023-05-10T16:39:29.522Z,25.77
2023-05-10T16:41:56.184Z,25.81
2023-05-10T16:44:25.187Z,26.12
2023-05-10T16:46:52.796Z,26.43
2023-05-10T16:49:19.518Z,26.43
2023-05-10T16:51:46.271Z,26.61
2023-05-10T16:54:13.166Z,26.51
2023-05-10T16:56:40.374Z,26.62
2023-05-10T16:59:07.178Z,26.50
2023-05-10T17:01:34.134Z,26.57
2023-05-10T17:04:00.923Z,26.79
2023-05-10T17:06:27.859Z,26.96
2023-05-10T17:08:54.698Z,27.42
2023-05-10T17:11:21.398Z,27.67
2023-05-10T17:13:48.212Z,28.18
2023-05-10T17:16:14.988Z,28.65
2023-05-10T17:18:42.110Z,28.83
2023-05-10T17:21:09.131Z,29.03
2023-05-10T17:23:35.793Z,29.25
2023-05-10T17:26:06.155Z,29.51
2023-05-10T17:28:32.816Z,29.82
2023-05-10T17:30:59.628Z,30.16
2023-05-10T17:33:26.569Z,30.45
2023-05-10T17:35:53.272Z,30.64
2023-05-10T17:38:19.957Z,30.57
2023-05-10T17:40:46.885Z,31.25
2023-05-10T17:43:13.581Z,31.53
2023-05-10T17:45:40.435Z,31.21
2023-05-10T17:48:07.264Z,31.73
2023-05-10T17:50:34.841Z,31.98
2023-05-10T17:53:02.525Z,32.18
2023-05-10T17:55:30.190Z,32.45
2023-05-10T17:57:58.969Z,32.68
2023-05-10T18:00:25.840Z,32.62
2023-05-10T18:02:52.471Z,33.17
2023-05-10T18:05:19.594Z,33.40
2023-05-10T18:07:46.607Z,33.45
2023-05-10T18:10:13.424Z,33.67
2023-05-10T18:12:40.190Z,34.32
2023-05-10T18:15:07.880Z,33.49
2023-05-10T18:17:34.704Z,33.87
2023-05-10T18:20:01.880Z,34.24
2023-05-10T18:22:28.998Z,33.92
2023-05-10T18:24:55.770Z,34.38
2023-05-10T18:27:22.453Z,34.04
2023-05-10T18:29:49.364Z,34.34
2023-05-10T18:32:16.137Z,33.75
2023-05-10T18:34:43.036Z,33.86
2023-05-10T18:37:09.883Z,34.59
2023-05-10T18:39:37.217Z,34.15
2023-05-10T18:42:05.309Z,34.20
2023-05-10T18:44:32.014Z,34.19
2023-05-10T18:46:58.781Z,34.68
2023-05-10T18:49:27.000Z,34.68
2023-05-10T18:51:53.929Z,35.03
2023-05-10T18:54:20.585Z,35.52
2023-05-10T18:56:49.189Z,35.19
2023-05-10T18:59:16.029Z,35.04
2023-05-10T19:01:42.806Z,35.15
2023-05-10T19:04:12.233Z,35.55
2023-05-10T19:06:39.571Z,36.02
2023-05-10T19:09:06.471Z,36.03
2023-05-10T19:11:33.985Z,36.20
2023-05-10T19:14:01.792Z,36.23
2023-05-10T19:16:29.969Z,36.35
2023-05-10T19:18:56.955Z,36.59
2023-05-10T19:21:24.771Z,36.62
2023-05-10T19:23:51.661Z,37.31
2023-05-10T19:26:18.542Z,37.89
2023-05-10T19:28:45.302Z,38.19
2023-05-10T19:31:12.020Z,38.29
2023-05-10T19:33:38.845Z,38.42
2023-05-10T19:36:05.868Z,38.51
2023-05-10T19:38:32.932Z,38.64
2023-05-10T19:40:59.859Z,39.05
2023-05-10T19:43:27.691Z,39.49
2023-05-10T19:45:57.611Z,39.85
2023-05-10T19:48:25.025Z,40.24
2023-05-10T19:50:52.742Z,40.80
2023-05-10T19:53:19.600Z,40.97
2023-05-10T19:55:46.208Z,41.04
2023-05-10T19:58:12.892Z,41.59
2023-05-10T20:00:39.546Z,41.87
2023-05-10T20:03:09.033Z,41.99
2023-05-10T20:05:35.964Z,42.56
2023-05-10T20:08:02.619Z,42.90
2023-05-10T20:10:29.262Z,43.12
2023-05-10T20:12:57.995Z,43.63
2023-05-10T20:15:24.642Z,44.03
2023-05-10T20:17:52.276Z,44.50
2023-05-10T20:20:19.647Z,45.24
2023-05-10T20:22:47.839Z,45.32
2023-05-10T20:25:15.322Z,45.53
2023-05-10T20:27:42.035Z,46.24
2023-05-10T20:30:09.881Z,46.13
2023-05-10T20:32:36.675Z,46.59
2023-05-10T20:35:04.562Z,47.29
2023-05-10T20:37:31.317Z,47.62
2023-05-10T20:39:58.196Z,47.87
2023-05-10T20:42:24.805Z,48.07
2023-05-10T20:44:51.402Z,48.71
2023-05-10T20:47:17.991Z,48.76
2023-05-10T20:49:44.605Z,49.06
2023-05-10T20:52:11.241Z,48.54
2023-05-10T20:54:37.895Z,47.83
2023-05-10T20:57:04.654Z,48.51
2023-05-10T20:59:31.230Z,48.91
2023-05-10T21:01:57.916Z,49.27
2023-05-10T21:04:25.196Z,50.30
2023-05-10T21:06:52.417Z,50.67
2023-05-10T21:09:19.125Z,50.58
2023-05-10T21:11:45.703Z,50.50
2023-05-10T21:14:12.457Z,51.28
2023-05-10T21:16:39.201Z,51.25
2023-05-10T21:19:06.634Z,51.30
2023-05-10T21:21:33.255Z,51.67
2023-05-10T21:23:59.974Z,51.46
2023-05-10T21:26:26.583Z,51.94
2023-05-10T21:28:53.385Z,52.39
2023-05-10T21:31:20.165Z,52.80
2023-05-10T21:33:46.822Z,53.15
2023-05-10T21:36:13.498Z,53.07
2023-05-10T21:38:41.717Z,53.54
2023-05-10T21:41:08.384Z,53.59
2023-05-10T21:43:35.027Z,53.99
2023-05-10T21:46:01.713Z,54.27
2023-05-10T21:48:28.506Z,54.78
2023-05-10T21:50:55.185Z,55.27
2023-05-10T21:53:22.058Z,55.45
2023-05-10T21:55:48.772Z,55.61
2023-05-10T21:58:15.254Z,55.90
2023-05-10T22:00:41.849Z,55.54
2023-05-10T22:03:08.688Z,55.53
2023-05-10T22:05:35.413Z,55.95
2023-05-10T22:08:01.915Z,55.67
2023-05-10T22:10:28.921Z,56.02
2023-05-10T22:12:56.534Z,55.92
2023-05-10T22:15:23.260Z,56.16
2023-05-10T22:17:49.835Z,56.78
2023-05-10T22:20:16.579Z,56.69
2023-05-10T22:22:44.356Z,57.14
2023-05-10T22:25:10.912Z,56.98
2023-05-10T22:27:37.497Z,56.85
2023-05-10T22:30:04.973Z,57.76
2023-05-10T22:32:32.357Z,57.68
2023-05-10T22:34:59.133Z,58.01
2023-05-10T22:37:25.570Z,58.28
2023-05-10T22:39:52.246Z,58.58
2023-05-10T22:42:18.741Z,58.49
2023-05-10T22:44:45.398Z,58.72
2023-05-10T22:47:12.573Z,58.82
2023-05-10T22:49:39.291Z,59.23
2023-05-10T22:52:05.776Z,59.26
2023-05-10T22:54:33.761Z,59.08
2023-05-10T22:57:02.194Z,59.43
2023-05-10T22:59:28.832Z,59.74
2023-05-10T23:01:55.373Z,59.98
2023-05-10T23:04:22.067Z,59.91
2023-05-10T23:06:48.945Z,59.85
2023-05-10T23:09:15.851Z,59.60
2023-05-10T23:11:42.515Z,59.72
2023-05-10T23:14:09.045Z,60.38
2023-05-10T23:16:36.186Z,60.01
2023-05-10T23:19:02.994Z,60.13
2023-05-10T23:21:32.013Z,60.53
2023-05-10T23:23:58.962Z,60.76
2023-05-10T23:26:26.240Z,60.77
2023-05-10T23:28:52.925Z,60.46
2023-05-10T23:31:19.704Z,60.12
2023-05-10T23:33:46.484Z,60.43
2023-05-10T23:36:13.549Z,60.67
2023-05-10T23:38:40.221Z,61.19
2023-05-10T23:41:06.806Z,61.42
2023-05-10T23:43:33.429Z,61.81
2023-05-10T23:46:01.696Z,61.39
2023-05-10T23:48:28.390Z,62.23
2023-05-10T23:50:54.993Z,64.61
2023-05-10T23:53:21.687Z,64.85
2023-05-10T23:55:48.364Z,68.02
2023-05-10T23:58:15.076Z,66.15
